Terminal Aerodrome Forecast
Issued by NWS Goodland, KS

Home | Current Version | Previous Version | Text Only | Print | Product List | Glossary On
Versions: 1 2 3 4 5 6 7 8 9 10 11 12 13 14 15 16
000
FTUS43 KGLD 131549 AAC
TAFGLD
TAF AMD
KGLD 131549Z 1316/1412 18013KT 1 1/2SM BR OVC003
      TEMPO 1317/1318 5SM BR BKN007
     FM131800 17009KT P6SM BKN025
     FM131900 17009KT P6SM BKN035
     FM140300 20008KT P6SM BKN070
     FM140700 28010KT P6SM SCT070=

USA.gov is the U.S. government's official web portal to all federal, state and local government web resources and services.